Time;durP1;ratioP1;P1;durP2;ratioP2;P2;SDS_P1;SDS_P2;PMS_P1;PMS_P2;Temp;Humidity;BMP_temperature;BMP_pressure;BME280_temperature;BME280_humidity;BME280_pressure;Samples;Min_cycle;Max_cycle;Signal;HPM_P1;HPM_P2
2022/10/31 00:01:02;;;;;;;13.90;6.28;;;4.20;99.90;;;;;;5073201;28;20056;-67
2022/10/31 00:03:28;;;;;;;10.07;6.80;;;4.20;99.90;;;;;;5080253;28;20040;-64
2022/10/31 00:05:55;;;;;;;9.60;5.30;;;4.10;99.90;;;;;;5076445;28;20052;-75
2022/10/31 00:08:22;;;;;;;8.43;5.00;;;4.10;99.90;;;;;;5083161;28;20050;-64
2022/10/31 00:10:49;;;;;;;7.28;4.93;;;4.10;99.90;;;;;;5080612;28;20078;-67
2022/10/31 00:13:16;;;;;;;11.02;5.63;;;4.20;99.90;;;;;;5074288;28;20060;-70
2022/10/31 00:15:43;;;;;;;9.00;6.38;;;4.10;99.90;;;;;;5076472;28;20058;-65
2022/10/31 00:18:10;;;;;;;8.57;5.38;;;4.10;99.90;;;;;;5077172;28;20454;-66
2022/10/31 00:20:37;;;;;;;12.05;6.57;;;4.10;99.90;;;;;;5078455;28;20064;-67
2022/10/31 00:23:05;;;;;;;9.77;5.47;;;4.10;99.90;;;;;;5082034;28;20549;-65
2022/10/31 00:25:38;;;;;;;9.73;5.30;;;4.10;99.90;;;;;;5080413;28;20474;-67
2022/10/31 00:28:07;;;;;;;7.13;4.35;;;4.10;99.90;;;;;;5082858;28;20107;-66
2022/10/31 00:30:34;;;;;;;7.15;4.82;;;4.10;99.90;;;;;;5084038;28;20058;-65
2022/10/31 00:33:05;;;;;;;11.25;6.18;;;4.20;99.90;;;;;;5080095;28;20049;-64
2022/10/31 00:35:32;;;;;;;10.00;6.28;;;4.20;99.90;;;;;;5081193;28;20059;-64
2022/10/31 00:37:59;;;;;;;8.35;5.43;;;4.20;99.90;;;;;;5079317;28;20173;-65
2022/10/31 00:40:26;;;;;;;12.45;5.07;;;4.20;99.90;;;;;;5080508;28;20127;-64
2022/10/31 00:42:53;;;;;;;9.48;7.00;;;4.20;99.90;;;;;;5067074;28;20572;-68
2022/10/31 00:45:20;;;;;;;15.10;5.80;;;4.20;99.90;;;;;;5086855;28;20130;-64
2022/10/31 00:47:47;;;;;;;12.45;6.63;;;4.20;99.90;;;;;;5084981;28;20072;-67
2022/10/31 00:50:14;;;;;;;10.05;5.68;;;4.20;99.90;;;;;;5079708;28;20054;-70
2022/10/31 00:52:41;;;;;;;8.40;5.95;;;4.20;99.90;;;;;;5084122;28;20044;-68
2022/10/31 00:55:08;;;;;;;11.18;5.78;;;4.20;99.90;;;;;;5069273;28;20071;-68
2022/10/31 00:57:35;;;;;;;6.75;5.13;;;4.20;99.90;;;;;;5065226;28;20130;-65
2022/10/31 01:00:05;;;;;;;7.78;5.70;;;4.20;99.90;;;;;;5067707;28;20106;-65
2022/10/31 01:02:32;;;;;;;14.57;6.72;;;4.20;99.90;;;;;;5069443;28;20075;-68
2022/10/31 01:05:00;;;;;;;8.57;6.03;;;4.20;99.90;;;;;;5083584;28;20068;-65
2022/10/31 01:07:26;;;;;;;11.48;6.47;;;4.20;99.90;;;;;;5082607;28;20044;-65
2022/10/31 01:09:53;;;;;;;9.50;5.75;;;4.20;99.90;;;;;;5064542;28;20135;-65
2022/10/31 01:12:20;;;;;;;7.47;5.18;;;4.20;99.90;;;;;;5069458;28;20167;-64
2022/10/31 01:14:47;;;;;;;9.63;4.45;;;4.20;99.90;;;;;;5078831;28;20047;-68
2022/10/31 01:17:17;;;;;;;10.18;5.80;;;4.20;99.90;;;;;;5078630;28;20056;-69
2022/10/31 01:19:46;;;;;;;12.63;5.68;;;4.20;99.90;;;;;;5060137;28;20751;-63
2022/10/31 01:22:12;;;;;;;8.90;6.93;;;4.20;99.90;;;;;;5079215;28;20040;-65
2022/10/31 01:24:39;;;;;;;7.70;4.82;;;4.20;99.90;;;;;;5081473;28;20064;-65
2022/10/31 01:27:06;;;;;;;8.25;4.80;;;4.20;99.90;;;;;;5085899;28;20048;-64
2022/10/31 01:29:33;;;;;;;7.28;4.40;;;4.20;99.90;;;;;;5081936;28;20044;-68
2022/10/31 01:32:00;;;;;;;11.55;6.50;;;4.20;99.90;;;;;;5078581;28;20060;-65
2022/10/31 01:34:27;;;;;;;13.82;5.60;;;4.20;99.90;;;;;;5080948;28;20148;-64
2022/10/31 01:36:54;;;;;;;10.93;4.20;;;4.20;99.90;;;;;;5078452;28;20040;-67
2022/10/31 01:39:22;;;;;;;7.95;5.32;;;4.20;99.90;;;;;;5085115;28;20056;-66
2022/10/31 01:41:51;;;;;;;5.90;4.07;;;4.20;99.90;;;;;;5060098;28;20088;-66
2022/10/31 01:44:18;;;;;;;8.63;4.25;;;4.20;99.90;;;;;;5083188;28;20052;-64
2022/10/31 01:46:54;;;;;;;8.40;5.10;;;4.20;99.90;;;;;;5063503;28;20093;-64
2022/10/31 01:49:37;;;;;;;7.93;4.38;;;4.20;99.90;;;;;;5085969;28;20052;-72
2022/10/31 01:52:22;;;;;;;8.80;4.35;;;4.20;99.90;;;;;;5078763;28;20162;-71
2022/10/31 01:54:56;;;;;;;6.43;3.55;;;4.20;99.90;;;;;;5075990;28;20048;-64
2022/10/31 01:57:24;;;;;;;5.75;4.15;;;4.20;99.90;;;;;;5083604;28;20059;-65
2022/10/31 01:59:55;;;;;;;9.35;5.85;;;4.20;99.90;;;;;;5082540;28;20123;-66
2022/10/31 02:02:23;;;;;;;6.10;3.70;;;4.20;99.90;;;;;;5079203;28;20048;-66
2022/10/31 02:04:51;;;;;;;6.55;4.97;;;4.20;99.90;;;;;;5064307;28;20421;-68
2022/10/31 02:07:25;;;;;;;5.03;4.40;;;4.20;99.90;;;;;;5078419;28;20136;-73
2022/10/31 02:09:56;;;;;;;5.13;3.85;;;4.30;99.90;;;;;;5078786;28;20040;-66
2022/10/31 02:12:25;;;;;;;8.52;4.50;;;4.30;99.90;;;;;;5072188;28;20067;-66
2022/10/31 02:14:56;;;;;;;9.50;4.38;;;4.30;99.90;;;;;;5056143;28;20491;-66
2022/10/31 02:17:23;;;;;;;6.10;3.47;;;4.30;99.90;;;;;;5077093;28;20127;-76
2022/10/31 02:19:56;;;;;;;5.60;3.85;;;4.40;99.90;;;;;;5078736;28;20079;-69
2022/10/31 02:22:40;;;;;;;14.25;4.32;;;4.40;99.90;;;;;;5063425;28;20057;-65
2022/10/31 02:25:10;;;;;;;5.90;3.17;;;4.40;99.90;;;;;;5062965;28;20056;-65
2022/10/31 02:27:40;;;;;;;6.43;3.33;;;4.50;99.90;;;;;;5061411;28;20036;-73
2022/10/31 02:30:17;;;;;;;6.75;3.67;;;4.50;99.90;;;;;;5074593;28;20093;-63
2022/10/31 02:33:11;;;;;;;4.20;2.78;;;4.60;99.90;;;;;;5078384;28;20050;-64
2022/10/31 02:35:47;;;;;;;3.47;2.75;;;4.60;99.90;;;;;;5065353;28;20485;-64
2022/10/31 02:38:28;;;;;;;5.05;2.88;;;4.70;99.90;;;;;;5080420;28;20402;-66
2022/10/31 02:41:15;;;;;;;5.80;2.17;;;4.70;99.90;;;;;;5061200;28;20049;-69
2022/10/31 02:44:13;;;;;;;6.13;3.80;;;4.80;99.90;;;;;;5080571;28;20478;-64
2022/10/31 02:46:51;;;;;;;4.75;3.63;;;4.80;99.90;;;;;;5082288;28;20044;-64
2022/10/31 02:49:32;;;;;;;4.88;3.78;;;4.90;99.90;;;;;;5063780;28;20059;-64
2022/10/31 02:51:59;;;;;;;3.92;3.30;;;4.90;99.90;;;;;;5064899;28;20056;-64
2022/10/31 02:54:28;;;;;;;5.07;3.85;;;4.90;99.90;;;;;;5072501;28;20451;-65
2022/10/31 02:57:02;;;;;;;6.07;3.20;;;4.90;99.90;;;;;;5065272;28;20580;-72
2022/10/31 02:59:30;;;;;;;5.32;3.25;;;4.90;99.90;;;;;;5055455;28;20520;-67
2022/10/31 03:02:16;;;;;;;4.75;3.38;;;5.00;99.90;;;;;;5062672;28;20051;-64
2022/10/31 03:05:13;;;;;;;8.73;3.78;;;5.00;99.90;;;;;;5080089;28;20066;-69
2022/10/31 03:07:58;;;;;;;13.35;3.88;;;5.00;99.90;;;;;;5058974;28;20130;-65
2022/10/31 03:10:44;;;;;;;8.60;4.20;;;5.00;99.90;;;;;;5068907;28;20433;-65
2022/10/31 03:13:22;;;;;;;6.07;4.40;;;5.00;99.90;;;;;;5064328;28;20429;-69
2022/10/31 03:16:04;;;;;;;6.80;4.00;;;5.00;99.90;;;;;;5079836;28;20541;-64
2022/10/31 03:18:40;;;;;;;6.70;3.53;;;5.10;99.90;;;;;;5060792;28;20585;-64
2022/10/31 03:21:14;;;;;;;5.18;3.65;;;5.10;99.90;;;;;;5058232;28;20060;-66
2022/10/31 03:23:44;;;;;;;7.32;4.88;;;5.10;99.90;;;;;;5076482;28;20051;-71
2022/10/31 03:26:20;;;;;;;7.70;3.40;;;5.10;99.90;;;;;;5078296;28;20048;-67
2022/10/31 03:29:02;;;;;;;11.38;4.20;;;5.20;99.90;;;;;;5060845;28;20446;-67
2022/10/31 03:31:34;;;;;;;14.60;4.30;;;5.20;99.90;;;;;;5071217;28;20147;-68
2022/10/31 03:34:03;;;;;;;8.95;4.95;;;5.20;99.90;;;;;;5075573;28;20055;-67
2022/10/31 03:36:33;;;;;;;6.75;4.55;;;5.20;99.90;;;;;;5062042;28;20117;-64
2022/10/31 03:39:04;;;;;;;9.23;4.38;;;5.20;99.90;;;;;;5064568;28;20054;-69
2022/10/31 03:41:38;;;;;;;9.27;4.30;;;5.20;99.90;;;;;;5082620;28;20586;-67
2022/10/31 03:44:10;;;;;;;7.97;4.43;;;5.20;99.90;;;;;;5076905;28;20055;-68
2022/10/31 03:46:40;;;;;;;7.30;4.15;;;5.20;99.90;;;;;;5061862;28;20533;-67
2022/10/31 03:49:07;;;;;;;9.23;4.75;;;5.20;99.90;;;;;;5059517;28;20108;-66
2022/10/31 03:51:40;;;;;;;8.02;4.10;;;5.20;99.90;;;;;;5065902;28;20040;-64
2022/10/31 03:54:31;;;;;;;11.38;4.82;;;5.20;99.90;;;;;;5060514;28;20183;-72
2022/10/31 03:57:08;;;;;;;10.63;4.50;;;5.20;99.90;;;;;;5076720;28;20552;-64
2022/10/31 03:59:49;;;;;;;6.38;4.22;;;5.20;99.90;;;;;;5062483;28;20048;-64
2022/10/31 04:02:20;;;;;;;15.07;5.10;;;5.20;99.90;;;;;;5064451;28;20461;-69
2022/10/31 04:04:49;;;;;;;7.28;4.22;;;5.20;99.90;;;;;;5061968;28;20052;-67
2022/10/31 04:07:16;;;;;;;10.23;4.50;;;5.20;99.90;;;;;;5079603;28;20044;-63
2022/10/31 04:09:46;;;;;;;7.55;4.45;;;5.20;99.90;;;;;;5076310;28;20048;-65
2022/10/31 04:12:15;;;;;;;22.45;5.72;;;5.20;99.90;;;;;;5062960;28;20055;-69
2022/10/31 04:15:01;;;;;;;10.63;5.20;;;5.20;99.90;;;;;;5070487;28;20080;-64
2022/10/31 04:17:32;;;;;;;9.90;5.70;;;5.30;99.90;;;;;;5062841;28;20048;-65
2022/10/31 04:20:00;;;;;;;11.43;6.57;;;5.30;99.90;;;;;;5061596;28;20048;-64
2022/10/31 04:22:28;;;;;;;11.13;4.57;;;5.30;99.90;;;;;;5067943;28;20452;-68
2022/10/31 04:24:55;;;;;;;12.07;5.43;;;5.40;99.90;;;;;;5065044;28;20410;-66
2022/10/31 04:27:22;;;;;;;11.40;5.40;;;5.40;99.90;;;;;;5067312;28;20059;-63
2022/10/31 04:29:49;;;;;;;10.85;6.13;;;5.60;99.90;;;;;;5084434;28;20040;-71
2022/10/31 04:32:17;;;;;;;10.35;6.10;;;5.70;99.90;;;;;;5072575;28;20052;-65
2022/10/31 04:34:44;;;;;;;15.18;5.90;;;5.80;99.90;;;;;;5080200;28;20446;-63
2022/10/31 04:37:11;;;;;;;13.32;6.90;;;5.90;99.90;;;;;;5059065;28;20450;-66
2022/10/31 04:39:38;;;;;;;12.00;6.35;;;5.90;99.90;;;;;;5064244;28;20055;-65
2022/10/31 04:42:23;;;;;;;10.18;6.07;;;6.00;99.90;;;;;;5078773;28;20435;-65
2022/10/31 04:44:51;;;;;;;9.60;6.38;;;6.10;99.90;;;;;;5061564;28;20541;-66
2022/10/31 04:47:18;;;;;;;11.65;6.55;;;6.10;99.90;;;;;;5062777;28;20044;-65
2022/10/31 04:49:45;;;;;;;11.50;5.75;;;6.20;99.90;;;;;;5067675;28;20052;-64
2022/10/31 04:52:13;;;;;;;12.18;6.68;;;6.20;99.90;;;;;;5062832;28;20064;-64
2022/10/31 04:54:40;;;;;;;12.65;7.40;;;6.30;99.90;;;;;;5082147;28;20060;-69
2022/10/31 04:57:25;;;;;;;16.20;6.55;;;6.30;99.90;;;;;;5084176;28;20066;-66
2022/10/31 04:59:54;;;;;;;11.73;6.93;;;6.40;99.90;;;;;;5060138;28;20049;-70
2022/10/31 05:02:22;;;;;;;15.57;6.40;;;6.40;99.90;;;;;;5064880;28;20345;-72
2022/10/31 05:04:54;;;;;;;13.55;7.85;;;6.50;99.90;;;;;;5080302;28;20063;-70
2022/10/31 05:07:21;;;;;;;22.35;7.90;;;6.50;99.90;;;;;;5079990;28;20083;-64
2022/10/31 05:09:48;;;;;;;17.10;7.18;;;6.60;99.90;;;;;;5060572;28;20069;-65
2022/10/31 05:12:16;;;;;;;19.98;7.60;;;6.70;99.90;;;;;;5065615;28;20240;-68
2022/10/31 05:15:05;;;;;;;11.02;6.28;;;6.70;99.90;;;;;;5082574;28;20520;-71
2022/10/31 05:17:52;;;;;;;22.60;7.60;;;6.70;99.90;;;;;;5079845;28;20543;-72
2022/10/31 05:20:37;;;;;;;21.88;8.38;;;6.80;99.90;;;;;;5083154;28;20044;-65
2022/10/31 05:23:24;;;;;;;17.63;7.72;;;6.90;99.90;;;;;;5075739;28;20402;-69
2022/10/31 05:25:51;;;;;;;19.33;10.07;;;6.90;99.90;;;;;;5058803;28;20097;-66
2022/10/31 05:28:18;;;;;;;33.08;8.98;;;7.00;99.90;;;;;;5084625;28;20048;-67
2022/10/31 05:30:45;;;;;;;23.10;8.40;;;7.10;99.90;;;;;;5081817;28;20063;-71
2022/10/31 05:33:14;;;;;;;22.25;8.82;;;7.10;99.90;;;;;;5064624;28;20048;-68
2022/10/31 05:36:01;;;;;;;19.27;7.90;;;7.10;99.90;;;;;;5082781;28;20055;-70
2022/10/31 05:38:41;;;;;;;16.63;8.45;;;7.20;99.90;;;;;;5064939;28;20067;-67
2022/10/31 05:41:19;;;;;;;23.80;9.75;;;7.20;99.90;;;;;;5058793;28;20066;-66
2022/10/31 05:43:47;;;;;;;33.33;11.05;;;7.20;99.90;;;;;;5061954;28;20105;-67
2022/10/31 05:46:16;;;;;;;20.70;9.43;;;7.20;99.90;;;;;;5074646;28;20153;-65
2022/10/31 05:49:02;;;;;;;20.90;9.98;;;7.20;99.90;;;;;;5079670;28;20054;-66
2022/10/31 05:51:47;;;;;;;29.02;10.07;;;7.30;99.90;;;;;;5079751;28;20055;-70
2022/10/31 05:54:14;;;;;;;26.33;10.27;;;7.30;99.90;;;;;;5082939;28;20068;-64
2022/10/31 05:56:44;;;;;;;30.23;11.63;;;7.30;99.90;;;;;;5059302;28;20127;-64
2022/10/31 05:59:11;;;;;;;21.38;10.48;;;7.40;99.90;;;;;;5055182;28;20059;-73
2022/10/31 06:01:39;;;;;;;28.20;12.55;;;7.40;99.90;;;;;;5063899;28;20040;-64
2022/10/31 06:04:16;;;;;;;25.60;10.48;;;7.40;99.90;;;;;;5059498;28;20048;-67
2022/10/31 06:06:43;;;;;;;31.33;11.77;;;7.50;99.90;;;;;;5063439;28;20565;-69
2022/10/31 06:09:10;;;;;;;33.17;11.55;;;7.50;99.90;;;;;;5082991;28;20048;-64
2022/10/31 06:11:37;;;;;;;24.08;12.32;;;7.50;99.90;;;;;;5065025;28;20052;-67
2022/10/31 06:14:05;;;;;;;27.95;14.13;;;7.50;99.90;;;;;;5080030;28;20059;-68
2022/10/31 06:16:43;;;;;;;20.77;10.93;;;7.60;99.90;;;;;;5078647;28;20155;-64
2022/10/31 06:19:36;;;;;;;27.75;12.70;;;7.60;99.90;;;;;;5072153;28;20387;-73
2022/10/31 06:22:04;;;;;;;32.97;13.50;;;7.70;99.90;;;;;;5065041;28;20446;-64
2022/10/31 06:24:32;;;;;;;31.50;13.27;;;7.70;99.90;;;;;;5080167;28;20043;-66
2022/10/31 06:27:03;;;;;;;28.67;15.30;;;7.80;99.90;;;;;;5064243;28;20059;-75
2022/10/31 06:29:31;;;;;;;29.60;13.77;;;7.80;99.90;;;;;;5067090;28;20210;-67
2022/10/31 06:32:04;;;;;;;27.65;12.90;;;7.90;99.90;;;;;;5061295;28;20059;-65
2022/10/31 06:34:37;;;;;;;22.50;12.23;;;8.00;99.90;;;;;;5065455;28;20043;-65
2022/10/31 06:37:08;;;;;;;24.95;11.00;;;8.00;99.90;;;;;;5064898;28;20088;-66
2022/10/31 06:39:37;;;;;;;28.27;11.93;;;8.10;99.90;;;;;;5062783;28;20385;-66
2022/10/31 06:42:05;;;;;;;31.23;12.05;;;8.10;99.90;;;;;;5059272;28;20500;-64
2022/10/31 06:44:33;;;;;;;19.65;11.23;;;8.20;99.90;;;;;;5065054;28;20040;-65
2022/10/31 06:47:18;;;;;;;22.27;10.95;;;8.20;99.90;;;;;;5077886;28;20077;-65
2022/10/31 06:49:59;;;;;;;25.95;14.57;;;8.30;99.90;;;;;;5058030;28;20055;-65
2022/10/31 06:52:26;;;;;;;23.02;11.95;;;8.30;99.90;;;;;;5059029;28;20052;-65
2022/10/31 06:54:53;;;;;;;31.50;13.35;;;8.40;99.90;;;;;;5074533;28;20063;-75
2022/10/31 06:57:22;;;;;;;23.67;10.10;;;8.50;99.90;;;;;;5062626;28;20078;-64
2022/10/31 06:59:49;;;;;;;22.70;12.93;;;8.50;99.90;;;;;;5055407;28;20056;-74
2022/10/31 07:02:31;;;;;;;20.15;11.88;;;8.60;99.90;;;;;;5061257;28;20046;-64
2022/10/31 07:04:58;;;;;;;30.67;14.45;;;8.60;99.90;;;;;;5066688;28;20453;-70
2022/10/31 07:07:25;;;;;;;25.92;13.93;;;8.70;99.90;;;;;;5065064;28;20543;-65
2022/10/31 07:09:52;;;;;;;22.60;13.75;;;8.80;99.90;;;;;;5059978;28;20052;-68
2022/10/31 07:12:30;;;;;;;21.42;12.30;;;8.80;99.90;;;;;;5069964;28;20048;-66
2022/10/31 07:14:58;;;;;;;22.10;15.27;;;8.90;99.90;;;;;;5071468;28;20405;-69
2022/10/31 07:17:25;;;;;;;25.60;14.65;;;9.00;99.90;;;;;;5080801;28;20071;-66
2022/10/31 07:19:58;;;;;;;21.25;12.88;;;9.00;99.90;;;;;;5056927;28;20082;-64
2022/10/31 07:22:31;;;;;;;25.55;13.82;;;9.10;99.90;;;;;;5065388;28;20048;-67
2022/10/31 07:24:58;;;;;;;26.60;14.00;;;9.20;99.90;;;;;;5063552;28;20498;-66
2022/10/31 07:27:45;;;;;;;26.13;13.48;;;9.20;99.90;;;;;;5034637;28;20063;-65
2022/10/31 07:30:13;;;;;;;31.38;18.02;;;9.20;99.90;;;;;;5078388;28;20131;-66
2022/10/31 07:32:49;;;;;;;25.33;15.85;;;9.30;99.90;;;;;;5061934;28;20048;-71
2022/10/31 07:35:28;;;;;;;30.23;15.13;;;9.30;99.90;;;;;;5063806;28;20048;-66
2022/10/31 07:38:06;;;;;;;29.77;16.38;;;9.40;99.90;;;;;;5058341;28;20106;-70
2022/10/31 07:40:33;;;;;;;32.10;16.95;;;9.50;99.90;;;;;;5080813;28;20048;-65
2022/10/31 07:43:00;;;;;;;32.63;16.02;;;9.50;99.90;;;;;;5065272;28;20056;-70
2022/10/31 07:46:02;;;;;;;25.95;14.23;;;9.60;99.90;;;;;;5075755;28;20406;-67
2022/10/31 07:48:47;;;;;;;27.27;14.32;;;9.70;99.90;;;;;;5074262;28;20519;-67
2022/10/31 07:51:32;;;;;;;22.48;13.43;;;9.80;99.90;;;;;;5085200;28;20457;-64
2022/10/31 07:54:02;;;;;;;27.33;13.25;;;9.90;99.90;;;;;;5081180;28;20055;-68
2022/10/31 07:56:31;;;;;;;20.17;12.43;;;9.90;99.90;;;;;;5065027;28;20490;-64
2022/10/31 07:58:58;;;;;;;21.15;12.13;;;10.00;99.90;;;;;;5069023;28;20051;-72
2022/10/31 08:01:25;;;;;;;26.20;13.85;;;10.10;99.90;;;;;;5069954;28;20052;-66
2022/10/31 08:04:12;;;;;;;26.42;16.05;;;10.10;99.90;;;;;;5085008;28;20044;-66
2022/10/31 08:06:59;;;;;;;29.30;12.50;;;10.20;99.90;;;;;;5053691;28;20059;-72
2022/10/31 08:09:32;;;;;;;32.28;13.85;;;10.20;99.90;;;;;;5083652;28;20487;-73
2022/10/31 08:12:04;;;;;;;18.85;12.52;;;10.30;99.90;;;;;;5081448;28;20525;-65
2022/10/31 08:14:32;;;;;;;30.00;16.65;;;10.30;99.90;;;;;;5063616;28;20044;-67
2022/10/31 08:16:59;;;;;;;29.38;19.08;;;10.40;99.90;;;;;;5056282;28;20101;-73
2022/10/31 08:19:35;;;;;;;29.85;19.23;;;10.40;99.90;;;;;;5068949;28;20050;-70
2022/10/31 08:22:02;;;;;;;30.52;19.08;;;10.50;99.90;;;;;;5066062;28;20363;-65
2022/10/31 08:24:29;;;;;;;30.17;14.80;;;10.50;99.90;;;;;;5064156;28;20040;-64
2022/10/31 08:26:57;;;;;;;26.10;16.63;;;10.60;99.90;;;;;;5068822;28;20047;-65
2022/10/31 08:29:24;;;;;;;28.20;16.80;;;10.60;99.90;;;;;;5085586;28;20049;-68
2022/10/31 08:31:51;;;;;;;28.35;17.10;;;10.70;99.90;;;;;;5064657;28;20135;-69
2022/10/31 08:34:37;;;;;;;30.90;14.15;;;10.80;99.90;;;;;;5077217;28;20134;-67
2022/10/31 08:37:22;;;;;;;22.90;13.20;;;10.80;99.90;;;;;;5077910;28;20055;-66
2022/10/31 08:39:53;;;;;;;28.20;12.20;;;10.90;99.90;;;;;;5058952;28;20044;-70
2022/10/31 08:42:20;;;;;;;26.85;12.65;;;11.00;99.90;;;;;;5081982;28;20052;-68
2022/10/31 08:44:47;;;;;;;21.60;12.68;;;11.10;99.90;;;;;;5053759;28;20056;-66
2022/10/31 08:47:14;;;;;;;18.92;11.55;;;11.20;99.90;;;;;;5061462;28;20052;-65
2022/10/31 08:49:41;;;;;;;32.00;11.30;;;11.30;99.90;;;;;;5085023;28;20075;-67
2022/10/31 08:52:08;;;;;;;19.02;10.18;;;11.30;99.90;;;;;;5063827;28;20056;-66
2022/10/31 08:54:41;;;;;;;21.02;10.20;;;11.30;99.90;;;;;;5058350;28;20416;-71
2022/10/31 08:57:27;;;;;;;18.30;10.30;;;11.40;99.90;;;;;;5075177;28;20468;-67
2022/10/31 08:59:53;;;;;;;14.98;8.77;;;11.60;99.90;;;;;;5043471;28;20052;-71
2022/10/31 09:02:26;;;;;;;13.70;7.05;;;11.60;99.90;;;;;;5062897;28;20494;-65
2022/10/31 09:04:58;;;;;;;13.48;6.78;;;11.70;99.90;;;;;;5062470;28;20048;-65
2022/10/31 09:07:25;;;;;;;9.68;5.15;;;11.70;99.90;;;;;;5068461;28;20056;-72
2022/10/31 09:09:53;;;;;;;9.38;5.03;;;11.70;99.90;;;;;;5060086;28;20136;-66
2022/10/31 09:12:20;;;;;;;8.30;4.82;;;11.70;99.90;;;;;;5066080;28;20411;-66
2022/10/31 09:14:47;;;;;;;6.45;3.92;;;11.60;99.90;;;;;;5080242;28;20074;-66
2022/10/31 09:17:22;;;;;;;10.57;5.47;;;11.60;99.90;;;;;;5066134;28;20413;-65
2022/10/31 09:20:12;;;;;;;6.75;4.18;;;11.60;99.90;;;;;;5077597;28;20123;-66
2022/10/31 09:22:39;;;;;;;5.20;4.15;;;11.70;99.90;;;;;;5077246;28;20059;-64
2022/10/31 09:25:07;;;;;;;8.57;4.78;;;11.70;99.90;;;;;;5068618;28;20486;-70
2022/10/31 09:27:33;;;;;;;7.80;4.47;;;11.80;99.90;;;;;;5084378;28;20410;-68
2022/10/31 09:30:01;;;;;;;5.35;3.65;;;11.80;99.90;;;;;;5063664;28;20059;-68
2022/10/31 09:32:28;;;;;;;7.10;4.25;;;11.80;99.90;;;;;;5066669;28;20124;-66
2022/10/31 09:34:55;;;;;;;9.07;5.57;;;11.90;99.90;;;;;;5075444;28;20056;-65
2022/10/31 09:37:22;;;;;;;12.38;3.97;;;11.90;99.90;;;;;;5064160;28;20135;-67
2022/10/31 09:39:50;;;;;;;14.05;4.97;;;12.00;99.90;;;;;;5063803;28;20069;-64
2022/10/31 09:42:46;;;;;;;4.32;3.92;;;11.90;99.90;;;;;;5083370;28;20166;-67
2022/10/31 09:45:37;;;;;;;5.20;4.25;;;12.00;99.90;;;;;;5056385;28;20135;-68
2022/10/31 09:48:15;;;;;;;8.82;5.00;;;12.00;99.90;;;;;;5058938;28;20064;-66
2022/10/31 09:51:21;;;;;;;5.75;4.10;;;11.90;99.90;;;;;;5053397;28;20051;-64
2022/10/31 09:54:16;;;;;;;9.55;4.60;;;12.00;99.90;;;;;;5062130;28;20043;-65
2022/10/31 09:56:44;;;;;;;11.20;5.22;;;12.00;99.90;;;;;;5065521;28;20073;-66
2022/10/31 09:59:34;;;;;;;7.35;6.00;;;12.00;99.90;;;;;;5054990;28;20127;-68
2022/10/31 10:02:03;;;;;;;8.68;4.95;;;12.00;99.90;;;;;;5070649;28;20467;-65
2022/10/31 10:04:29;;;;;;;12.55;6.10;;;12.00;99.90;;;;;;5059941;28;20060;-66
2022/10/31 10:07:19;;;;;;;10.85;5.43;;;12.00;99.90;;;;;;5065009;28;20048;-65
2022/10/31 10:10:18;;;;;;;16.95;6.60;;;12.00;99.90;;;;;;5045562;28;20079;-71
2022/10/31 10:13:17;;;;;;;11.93;6.25;;;12.10;99.90;;;;;;5068591;28;20068;-68
2022/10/31 10:16:00;;;;;;;9.07;5.38;;;12.10;99.90;;;;;;5078314;28;20048;-70
2022/10/31 10:18:45;;;;;;;10.13;4.60;;;12.10;99.90;;;;;;5079275;28;20052;-69
2022/10/31 10:21:18;;;;;;;6.80;3.60;;;12.20;99.90;;;;;;5078767;28;20143;-65
2022/10/31 10:24:09;;;;;;;5.65;3.10;;;12.20;99.90;;;;;;5079861;28;20143;-71
2022/10/31 10:26:40;;;;;;;10.35;3.88;;;12.10;99.90;;;;;;5080353;28;20135;-64
2022/10/31 10:29:21;;;;;;;11.07;4.75;;;12.20;99.90;;;;;;5074383;28;20642;-67
2022/10/31 10:31:49;;;;;;;14.93;5.75;;;12.10;99.90;;;;;;5081368;28;20146;-65
2022/10/31 10:34:39;;;;;;;15.53;5.23;;;12.10;99.90;;;;;;5082256;28;20052;-70
2022/10/31 10:37:22;;;;;;;18.98;6.60;;;12.00;99.90;;;;;;5077073;28;20398;-65
2022/10/31 10:39:55;;;;;;;11.40;7.03;;;12.00;99.90;;;;;;5081348;28;20051;-70
2022/10/31 10:48:28;;;;;;;14.27;6.35;;;11.90;99.90;;;;;;5070392;28;20174;-64
2022/10/31 10:50:55;;;;;;;11.52;4.88;;;11.80;99.90;;;;;;5061279;28;20055;-71
2022/10/31 10:53:59;;;;;;;10.90;5.45;;;11.80;99.90;;;;;;5080173;28;20063;-66
2022/10/31 10:56:50;;;;;;;9.75;6.63;;;11.80;99.90;;;;;;5077788;28;20043;-65
2022/10/31 10:59:20;;;;;;;10.65;6.65;;;11.80;99.90;;;;;;5076409;28;20044;-66
2022/10/31 11:01:50;;;;;;;21.73;10.27;;;11.80;99.90;;;;;;5080304;28;20105;-66
2022/10/31 11:04:28;;;;;;;17.70;7.97;;;11.80;99.90;;;;;;5077703;28;20051;-65
2022/10/31 11:07:01;;;;;;;18.67;8.50;;;11.70;99.90;;;;;;5074194;28;20513;-70
2022/10/31 11:09:28;;;;;;;8.73;6.70;;;11.60;99.90;;;;;;5074746;28;20125;-67
2022/10/31 11:11:57;;;;;;;18.58;10.02;;;11.60;99.90;;;;;;5080229;28;20056;-67
2022/10/31 11:14:26;;;;;;;11.07;7.72;;;11.60;99.90;;;;;;5074965;28;20036;-65
2022/10/31 11:17:10;;;;;;;15.70;8.85;;;11.60;99.90;;;;;;5077209;28;20076;-71
2022/10/31 11:19:37;;;;;;;13.60;7.32;;;11.60;99.90;;;;;;5056310;28;20135;-65
2022/10/31 11:22:14;;;;;;;9.98;7.13;;;11.60;99.90;;;;;;5072676;28;20044;-66
2022/10/31 11:24:42;;;;;;;9.77;7.03;;;11.50;99.90;;;;;;5075439;28;20398;-65
2022/10/31 11:27:15;;;;;;;10.05;6.05;;;11.50;99.90;;;;;;5081835;28;20062;-70
2022/10/31 11:29:42;;;;;;;12.75;7.47;;;11.50;99.90;;;;;;5082095;28;20048;-70
2022/10/31 11:32:19;;;;;;;11.90;6.75;;;11.40;99.90;;;;;;5078996;28;20086;-68
2022/10/31 11:34:49;;;;;;;12.70;7.53;;;11.40;99.90;;;;;;5078931;28;20417;-66
2022/10/31 11:37:29;;;;;;;9.80;8.00;;;11.40;99.90;;;;;;5076593;28;20524;-65
2022/10/31 11:39:58;;;;;;;16.00;8.73;;;11.40;99.90;;;;;;5073908;28;20102;-72
2022/10/31 11:42:35;;;;;;;14.57;7.38;;;11.40;99.90;;;;;;5078019;28;20116;-67
2022/10/31 11:45:13;;;;;;;9.43;7.70;;;11.40;99.90;;;;;;5081940;28;20094;-70
2022/10/31 11:47:44;;;;;;;12.82;7.60;;;11.40;99.90;;;;;;5081899;28;20055;-65
2022/10/31 11:50:20;;;;;;;9.00;6.82;;;11.40;99.90;;;;;;5075679;28;20054;-66
2022/10/31 11:52:47;;;;;;;11.93;8.60;;;11.40;99.90;;;;;;5080325;28;20454;-65
2022/10/31 11:55:28;;;;;;;11.68;8.50;;;11.40;99.90;;;;;;5077102;28;20055;-65
2022/10/31 11:57:56;;;;;;;10.18;8.35;;;11.40;99.90;;;;;;5074164;28;20075;-68
2022/10/31 12:00:25;;;;;;;17.55;9.18;;;11.40;99.90;;;;;;5060832;28;20044;-67
2022/10/31 12:03:21;;;;;;;16.10;9.88;;;11.40;99.90;;;;;;5077631;28;20124;-73
2022/10/31 12:06:13;;;;;;;12.18;8.90;;;11.40;99.90;;;;;;5081693;28;20044;-66
2022/10/31 12:08:41;;;;;;;12.65;9.90;;;11.40;99.90;;;;;;5075811;28;20531;-65
2022/10/31 12:11:26;;;;;;;10.57;7.93;;;11.40;99.90;;;;;;5079961;28;20494;-65
2022/10/31 12:14:29;;;;;;;17.23;8.95;;;11.40;99.90;;;;;;5072135;28;20516;-67
2022/10/31 12:17:19;;;;;;;13.32;8.70;;;11.40;99.90;;;;;;5074011;28;20154;-71
2022/10/31 12:20:16;;;;;;;19.20;8.70;;;11.50;99.90;;;;;;5075999;28;20044;-70
2022/10/31 12:22:48;;;;;;;15.13;9.68;;;11.40;99.90;;;;;;5067998;28;20060;-73
2022/10/31 12:25:27;;;;;;;14.40;8.07;;;11.40;99.90;;;;;;5074721;28;20191;-69
2022/10/31 12:28:07;;;;;;;17.23;7.38;;;11.50;99.90;;;;;;5072095;28;20151;-73
2022/10/31 12:30:46;;;;;;;8.18;7.20;;;11.50;99.90;;;;;;5075237;28;20052;-68
2022/10/31 12:33:19;;;;;;;9.05;8.15;;;11.50;99.90;;;;;;5076406;28;20044;-67
2022/10/31 12:36:08;;;;;;;16.88;10.50;;;11.50;99.90;;;;;;5060132;28;20055;-68
2022/10/31 12:38:43;;;;;;;11.65;8.70;;;11.50;99.90;;;;;;5065977;28;20860;-73
2022/10/31 12:41:36;;;;;;;12.13;7.78;;;11.50;99.90;;;;;;5079878;28;20465;-67
2022/10/31 12:44:18;;;;;;;10.73;8.00;;;11.60;99.90;;;;;;5075384;28;20048;-68
2022/10/31 12:47:00;;;;;;;9.45;6.80;;;11.60;99.90;;;;;;5073351;28;20139;-69
2022/10/31 12:49:56;;;;;;;10.77;6.93;;;11.60;99.90;;;;;;5069698;28;20055;-68
2022/10/31 12:52:43;;;;;;;13.45;6.80;;;11.70;99.90;;;;;;5064909;28;20130;-69
2022/10/31 12:55:29;;;;;;;8.38;5.90;;;11.70;99.90;;;;;;5058463;28;20054;-67
2022/10/31 12:58:23;;;;;;;8.05;6.07;;;11.70;99.90;;;;;;5075417;28;20075;-73
2022/10/31 13:01:12;;;;;;;12.55;6.65;;;11.70;99.90;;;;;;5075514;28;20466;-70
2022/10/31 13:03:49;;;;;;;6.60;5.30;;;11.70;99.90;;;;;;5078111;28;20056;-69
2022/10/31 13:06:21;;;;;;;9.48;5.30;;;11.70;99.90;;;;;;5077623;28;20063;-66
2022/10/31 13:08:54;;;;;;;7.40;5.30;;;11.80;99.90;;;;;;5080644;28;20405;-66
2022/10/31 13:11:41;;;;;;;9.32;4.90;;;11.80;99.90;;;;;;5072257;28;20735;-68
2022/10/31 13:14:23;;;;;;;9.50;5.72;;;11.90;99.90;;;;;;5076430;28;20059;-70
2022/10/31 13:16:51;;;;;;;7.40;5.43;;;11.90;99.90;;;;;;5073205;28;20083;-66
2022/10/31 13:19:30;;;;;;;8.02;6.82;;;12.00;99.90;;;;;;5080690;28;20048;-68
2022/10/31 13:22:16;;;;;;;5.47;4.13;;;12.10;99.90;;;;;;5067700;28;20055;-66
2022/10/31 13:24:50;;;;;;;7.60;4.50;;;12.10;99.90;;;;;;5063499;28;20370;-69